createdAt,value
2023-02-18T00:01:35.149Z,29.67
2023-02-18T00:04:02.900Z,25.98
2023-02-18T00:06:33.724Z,27.95
2023-02-18T00:09:02.685Z,30.45
2023-02-18T00:11:32.934Z,28.13
2023-02-18T00:14:02.625Z,29.58
2023-02-18T00:16:31.831Z,31.38
2023-02-18T00:19:01.609Z,27.30
2023-02-18T00:21:30.530Z,28.63
2023-02-18T00:23:59.721Z,28.38
2023-02-18T00:26:28.110Z,26.70
2023-02-18T00:28:56.023Z,29.20
2023-02-18T00:31:25.766Z,28.23
2023-02-18T00:33:54.146Z,23.90
2023-02-18T00:36:23.500Z,28.40
2023-02-18T00:38:54.640Z,22.73
2023-02-18T00:41:26.221Z,30.40
2023-02-18T00:43:54.031Z,25.63
2023-02-18T00:46:21.935Z,28.60
2023-02-18T00:48:50.803Z,23.20
2023-02-18T00:51:18.653Z,28.20
2023-02-18T00:53:46.479Z,24.77
2023-02-18T00:56:14.281Z,26.75
2023-02-18T00:58:43.783Z,25.70
2023-02-18T01:01:12.570Z,28.80
2023-02-18T01:03:42.284Z,25.58
2023-02-18T01:06:11.233Z,28.55
2023-02-18T01:08:40.046Z,28.02
2023-02-18T01:11:09.204Z,28.40
2023-02-18T01:13:37.849Z,26.80
2023-02-18T01:16:07.709Z,26.45
2023-02-18T01:18:35.699Z,29.60
2023-02-18T01:21:05.162Z,26.80
2023-02-18T01:23:32.950Z,28.33
2023-02-18T01:26:00.683Z,30.33
2023-02-18T01:28:28.465Z,29.83
2023-02-18T01:30:56.347Z,29.67
2023-02-18T01:33:25.823Z,27.13
2023-02-18T01:35:54.024Z,29.98
2023-02-18T01:38:21.774Z,28.52
2023-02-18T01:40:52.121Z,28.75
2023-02-18T01:43:21.216Z,27.80
2023-02-18T01:46:03.638Z,27.25
2023-02-18T01:48:39.477Z,27.42
2023-02-18T01:51:12.784Z,27.08
2023-02-18T01:53:47.443Z,24.58
2023-02-18T01:56:22.921Z,28.42
2023-02-18T01:58:52.299Z,26.02
2023-02-18T02:01:20.165Z,25.10
2023-02-18T02:03:49.373Z,26.20
2023-02-18T02:06:19.422Z,27.77
2023-02-18T02:08:50.314Z,26.75
2023-02-18T02:11:30.198Z,24.92
2023-02-18T02:14:12.261Z,24.52
2023-02-18T02:16:46.034Z,23.60
2023-02-18T02:19:57.698Z,20.90
2023-02-18T02:23:04.112Z,21.88
2023-02-18T02:26:02.204Z,22.38
2023-02-18T02:28:59.540Z,20.63
2023-02-18T02:31:54.783Z,20.98
2023-02-18T02:34:40.356Z,19.75
2023-02-18T02:37:16.122Z,20.75
2023-02-18T02:39:55.305Z,21.23
2023-02-18T02:42:31.788Z,21.00
2023-02-18T02:45:08.628Z,18.83
2023-02-18T02:47:42.312Z,21.73
2023-02-18T02:50:17.549Z,18.48
2023-02-18T02:52:49.039Z,16.40
2023-02-18T02:55:17.101Z,21.55
2023-02-18T02:57:50.952Z,20.00
2023-02-18T03:00:22.628Z,21.48
2023-02-18T03:03:07.675Z,22.77
2023-02-18T03:05:51.772Z,21.35
2023-02-18T03:08:34.085Z,22.27
2023-02-18T03:11:06.399Z,23.92
2023-02-18T03:13:46.400Z,14.60
2023-02-18T03:16:24.074Z,17.50
2023-02-18T03:18:58.556Z,23.30
2023-02-18T03:21:30.762Z,22.15
2023-02-18T03:24:03.216Z,19.35
2023-02-18T03:29:03.860Z,17.98
2023-02-18T03:31:35.502Z,17.08
2023-02-18T03:34:07.959Z,17.70
2023-02-18T03:39:08.990Z,21.35
2023-02-18T03:41:37.259Z,24.63
2023-02-18T03:44:06.495Z,23.45
2023-02-18T03:46:36.276Z,23.90
2023-02-18T03:49:04.984Z,27.10
2023-02-18T03:51:32.823Z,23.38
2023-02-18T03:54:02.068Z,21.20
2023-02-18T03:56:29.813Z,22.63
2023-02-18T03:58:57.582Z,20.30
2023-02-18T04:01:25.410Z,24.33
2023-02-18T04:03:55.194Z,22.65
2023-02-18T04:06:23.477Z,21.25
2023-02-18T04:08:51.621Z,22.83
2023-02-18T04:11:21.031Z,17.15
2023-02-18T04:13:48.800Z,19.55
2023-02-18T04:16:16.539Z,20.73
2023-02-18T04:18:44.296Z,20.10
2023-02-18T04:21:12.137Z,18.42
2023-02-18T04:23:39.941Z,16.98
2023-02-18T04:26:07.978Z,15.13
2023-02-18T04:28:37.300Z,16.50
2023-02-18T04:31:05.374Z,17.13
2023-02-18T04:33:33.150Z,15.20
2023-02-18T04:36:00.949Z,14.85
2023-02-18T04:38:28.640Z,16.35
2023-02-18T04:40:56.385Z,14.80
2023-02-18T04:43:24.078Z,14.13
2023-02-18T04:45:53.217Z,13.77
2023-02-18T04:48:20.995Z,11.95
2023-02-18T04:50:49.257Z,12.45
2023-02-18T04:53:16.955Z,14.65
2023-02-18T04:55:44.835Z,9.45
2023-02-18T04:58:12.628Z,10.05
2023-02-18T05:00:40.386Z,9.50
2023-02-18T05:03:09.455Z,8.35
2023-02-18T05:05:37.485Z,6.82
2023-02-18T05:08:06.616Z,8.07
2023-02-18T05:10:34.350Z,8.65
2023-02-18T05:13:02.216Z,8.32
2023-02-18T05:15:29.999Z,6.22
2023-02-18T05:17:57.694Z,6.22
2023-02-18T05:20:26.796Z,6.50
2023-02-18T05:22:54.576Z,5.63
2023-02-18T05:25:22.526Z,6.00
2023-02-18T05:27:50.362Z,6.10
2023-02-18T05:30:18.310Z,4.63
2023-02-18T05:32:46.966Z,4.45
2023-02-18T05:35:14.742Z,5.70
2023-02-18T05:37:43.831Z,4.10
2023-02-18T05:40:13.510Z,3.85
2023-02-18T05:42:41.254Z,3.38
2023-02-18T05:45:10.015Z,3.80
2023-02-18T05:47:37.824Z,3.83
2023-02-18T05:50:07.208Z,3.15
2023-02-18T05:52:34.956Z,3.60
2023-02-18T05:55:04.801Z,3.55
2023-02-18T05:57:32.587Z,3.35
2023-02-18T06:00:00.514Z,3.47
2023-02-18T06:02:28.332Z,3.85
2023-02-18T06:04:56.152Z,4.13
2023-02-18T06:07:24.043Z,3.83
2023-02-18T06:09:51.770Z,3.33
2023-02-18T06:12:21.010Z,3.47
2023-02-18T06:14:48.945Z,3.67
2023-02-18T06:17:18.708Z,3.38
2023-02-18T06:19:46.628Z,4.53
2023-02-18T06:22:14.337Z,3.28
2023-02-18T06:24:42.386Z,3.70
2023-02-18T06:27:10.177Z,4.50
2023-02-18T06:29:39.307Z,3.20
2023-02-18T06:32:07.245Z,3.25
2023-02-18T06:34:35.028Z,3.15
2023-02-18T06:37:02.823Z,3.00
2023-02-18T06:39:30.552Z,3.22
2023-02-18T06:41:58.410Z,3.33
2023-02-18T06:44:26.215Z,3.80
2023-02-18T06:46:55.352Z,3.97
2023-02-18T06:49:23.089Z,3.95
2023-02-18T06:51:50.775Z,3.08
2023-02-18T06:54:18.521Z,3.10
2023-02-18T06:56:46.243Z,3.20
2023-02-18T06:59:13.925Z,4.20
2023-02-18T07:01:41.634Z,3.13
2023-02-18T07:04:10.754Z,4.65
2023-02-18T07:06:38.456Z,4.78
2023-02-18T07:09:07.861Z,4.55
2023-02-18T07:11:35.652Z,4.97
2023-02-18T07:14:03.386Z,4.82
2023-02-18T07:16:31.162Z,4.57
2023-02-18T07:18:58.906Z,3.75
2023-02-18T07:21:28.074Z,4.38
2023-02-18T07:23:55.817Z,5.32
2023-02-18T07:26:23.584Z,5.03
2023-02-18T07:28:51.406Z,5.32
2023-02-18T07:31:19.323Z,4.10
2023-02-18T07:33:47.203Z,4.40
2023-02-18T07:36:15.103Z,4.35
2023-02-18T07:38:44.245Z,5.28
2023-02-18T07:41:19.216Z,4.32
2023-02-18T07:43:47.067Z,4.97
2023-02-18T07:46:14.950Z,3.97
2023-02-18T07:48:42.837Z,5.28
2023-02-18T07:51:12.515Z,5.95
2023-02-18T07:53:41.036Z,3.42
2023-02-18T07:56:10.866Z,3.50
2023-02-18T07:58:40.332Z,3.72
2023-02-18T08:01:08.977Z,3.45
2023-02-18T08:03:37.378Z,4.22
2023-02-18T08:06:07.346Z,4.32
2023-02-18T08:08:37.195Z,2.50
2023-02-18T08:11:18.944Z,2.60
2023-02-18T08:13:49.473Z,3.10
2023-02-18T08:16:18.363Z,3.03
2023-02-18T08:18:47.873Z,2.97
2023-02-18T08:21:15.841Z,3.08
2023-02-18T08:23:43.906Z,3.17
2023-02-18T08:26:12.317Z,3.40
2023-02-18T08:28:40.376Z,4.32
2023-02-18T08:31:19.624Z,4.03
2023-02-18T08:33:47.615Z,3.78
2023-02-18T08:36:15.997Z,4.00
2023-02-18T08:38:43.743Z,5.00
2023-02-18T08:41:11.827Z,4.55
2023-02-18T08:43:39.609Z,4.95
2023-02-18T08:46:09.069Z,3.85
2023-02-18T08:48:44.228Z,4.93
2023-02-18T08:51:14.126Z,5.70
2023-02-18T08:53:42.110Z,4.93
2023-02-18T08:56:10.797Z,5.20
2023-02-18T08:58:38.959Z,6.32
2023-02-18T09:01:10.904Z,9.73
2023-02-18T09:03:38.961Z,5.25
2023-02-18T09:06:07.354Z,7.70
2023-02-18T09:08:35.157Z,9.00
2023-02-18T09:11:05.527Z,11.13
2023-02-18T09:13:34.464Z,8.52
2023-02-18T09:16:04.370Z,9.10
2023-02-18T09:18:35.448Z,8.85
2023-02-18T09:21:04.620Z,9.25
2023-02-18T09:23:33.742Z,10.15
2023-02-18T09:26:02.078Z,7.40
2023-02-18T09:28:29.908Z,8.63
2023-02-18T09:30:57.751Z,10.48
2023-02-18T09:33:25.630Z,11.73
2023-02-18T09:35:55.230Z,10.18
2023-02-18T09:38:23.011Z,10.10
2023-02-18T09:40:54.930Z,8.90
2023-02-18T09:43:30.243Z,8.75
2023-02-18T09:46:00.590Z,13.90
2023-02-18T09:48:32.404Z,12.27
2023-02-18T09:51:01.791Z,13.90
2023-02-18T09:53:29.689Z,12.90
2023-02-18T09:55:59.027Z,8.57
2023-02-18T09:58:34.727Z,13.43
2023-02-18T10:01:12.005Z,10.98
2023-02-18T10:03:40.613Z,16.05
2023-02-18T10:06:17.093Z,12.27
2023-02-18T10:08:47.332Z,14.43
2023-02-18T10:11:17.660Z,23.17
2023-02-18T10:13:46.342Z,11.45
2023-02-18T10:16:18.905Z,10.15
2023-02-18T10:18:49.865Z,11.55
2023-02-18T10:21:23.158Z,12.10
2023-02-18T10:24:00.873Z,15.30
2023-02-18T10:26:30.861Z,11.35
2023-02-18T10:29:08.586Z,10.63
2023-02-18T10:31:40.552Z,10.93
2023-02-18T10:34:19.252Z,8.85
2023-02-18T10:36:52.816Z,13.98
2023-02-18T10:39:35.356Z,7.80
2023-02-18T10:42:15.940Z,14.40
2023-02-18T10:44:57.589Z,17.38
2023-02-18T10:47:38.477Z,15.40
2023-02-18T10:50:11.757Z,10.80
2023-02-18T10:52:44.325Z,11.90
2023-02-18T10:55:15.771Z,11.32
2023-02-18T10:57:51.901Z,14.63
2023-02-18T11:00:23.892Z,12.48
2023-02-18T11:03:06.970Z,10.35
2023-02-18T11:05:37.513Z,11.00
2023-02-18T11:08:09.971Z,11.35
2023-02-18T11:13:11.040Z,12.13
2023-02-18T11:15:39.084Z,14.27
2023-02-18T11:18:29.694Z,12.32
2023-02-18T11:21:00.604Z,10.57
2023-02-18T11:23:29.934Z,13.20
2023-02-18T11:26:02.334Z,11.63
2023-02-18T11:31:23.748Z,14.00
2023-02-18T11:33:55.100Z,12.10
2023-02-18T11:36:25.676Z,12.65
2023-02-18T11:38:57.855Z,9.60
2023-02-18T11:41:34.212Z,11.05
2023-02-18T11:44:03.463Z,10.63
2023-02-18T11:46:31.621Z,10.35
2023-02-18T11:49:13.036Z,10.88
2023-02-18T11:51:41.584Z,12.25
2023-02-18T11:54:24.897Z,8.63
2023-02-18T11:56:57.568Z,9.52
2023-02-18T11:59:26.121Z,10.00
2023-02-18T12:01:58.493Z,7.60
2023-02-18T12:07:13.726Z,9.07
2023-02-18T12:09:47.465Z,10.93
2023-02-18T12:12:19.255Z,8.20
2023-02-18T12:14:47.088Z,9.25
2023-02-18T12:17:41.952Z,7.50
2023-02-18T12:20:39.806Z,8.13
2023-02-18T12:23:17.438Z,6.78
2023-02-18T12:25:57.542Z,8.90
2023-02-18T12:28:36.695Z,8.15
2023-02-18T12:31:36.382Z,8.00
2023-02-18T12:34:20.386Z,6.85
2023-02-18T12:36:59.569Z,7.70
2023-02-18T12:39:42.525Z,7.35
2023-02-18T12:42:37.445Z,9.88
2023-02-18T12:45:22.716Z,9.38
2023-02-18T12:48:12.474Z,9.93
2023-02-18T12:51:06.445Z,10.43
2023-02-18T12:53:50.176Z,8.70
2023-02-18T12:56:42.100Z,9.07
2023-02-18T12:59:23.414Z,9.10
2023-02-18T13:01:59.287Z,9.52
2023-02-18T13:04:38.891Z,10.70
2023-02-18T13:07:32.157Z,10.27
2023-02-18T13:10:38.045Z,10.00
2023-02-18T13:13:11.851Z,12.82
2023-02-18T13:15:45.170Z,12.70
2023-02-18T13:18:18.165Z,12.95
2023-02-18T13:20:50.496Z,11.60
2023-02-18T13:23:20.868Z,8.52
2023-02-18T13:25:53.625Z,10.55
2023-02-18T13:28:27.518Z,10.60
2023-02-18T13:31:07.898Z,10.93
2023-02-18T13:33:43.998Z,12.43
2023-02-18T13:36:21.202Z,13.25
2023-02-18T13:38:56.273Z,14.30
2023-02-18T13:41:26.554Z,14.57
2023-02-18T13:43:54.757Z,16.48
2023-02-18T13:46:24.773Z,15.82
2023-02-18T13:48:54.873Z,20.95
2023-02-18T13:51:31.688Z,18.00
2023-02-18T13:54:05.272Z,18.13
2023-02-18T13:56:36.251Z,17.58
2023-02-18T13:59:11.170Z,17.42
2023-02-18T14:01:43.624Z,15.07
2023-02-18T14:07:26.317Z,17.83
2023-02-18T14:09:55.761Z,20.02
2023-02-18T14:12:39.167Z,21.75
2023-02-18T14:15:44.206Z,18.65
2023-02-18T14:18:25.946Z,18.48
2023-02-18T14:21:04.567Z,20.40
2023-02-18T14:23:42.185Z,20.63
2023-02-18T14:26:19.214Z,20.75
2023-02-18T14:28:54.613Z,20.67
2023-02-18T14:31:38.409Z,20.63
2023-02-18T14:34:39.237Z,23.23
2023-02-18T14:37:29.660Z,17.90
2023-02-18T14:40:07.521Z,23.20
2023-02-18T14:42:44.889Z,19.50
2023-02-18T14:45:26.498Z,22.63
2023-02-18T14:48:18.046Z,21.08
2023-02-18T14:50:51.221Z,22.85
2023-02-18T14:53:21.191Z,29.10
2023-02-18T14:55:52.023Z,28.55
2023-02-18T14:58:29.159Z,29.85
2023-02-18T15:00:57.229Z,26.73
2023-02-18T15:03:28.370Z,26.40
2023-02-18T15:05:57.502Z,25.45
2023-02-18T15:08:27.152Z,23.05
2023-02-18T15:10:59.864Z,20.42
2023-02-18T15:13:30.403Z,22.83
2023-02-18T15:16:01.603Z,27.45
2023-02-18T15:18:37.643Z,26.80
2023-02-18T15:21:22.190Z,28.48
2023-02-18T15:23:50.552Z,24.05
2023-02-18T15:26:18.940Z,26.08
2023-02-18T15:28:55.795Z,24.88
2023-02-18T15:31:27.320Z,25.10
2023-02-18T15:33:55.117Z,23.00
2023-02-18T15:36:27.608Z,23.70
2023-02-18T15:41:24.256Z,26.92
2023-02-18T15:43:57.095Z,24.13
2023-02-18T15:46:28.789Z,24.45
2023-02-18T15:48:58.958Z,25.02
2023-02-18T15:51:31.484Z,25.25
2023-02-18T15:56:32.537Z,25.70
2023-02-18T15:59:20.232Z,23.83
2023-02-18T16:01:51.129Z,23.52
2023-02-18T16:04:19.708Z,26.52
2023-02-18T16:06:52.018Z,22.60
2023-02-18T16:09:24.524Z,25.50
2023-02-18T16:14:32.620Z,27.17
2023-02-18T16:17:10.369Z,36.50
2023-02-18T16:20:04.004Z,28.65
2023-02-18T16:22:44.017Z,27.77
2023-02-18T16:25:18.293Z,30.77
2023-02-18T16:27:52.458Z,33.70
2023-02-18T16:30:22.685Z,24.42
2023-02-18T16:32:50.544Z,25.70
2023-02-18T16:35:18.754Z,23.92
2023-02-18T16:37:50.136Z,26.65
2023-02-18T16:40:25.722Z,29.95
2023-02-18T16:42:54.538Z,23.25
2023-02-18T16:45:25.213Z,25.83
2023-02-18T16:47:52.999Z,32.30
2023-02-18T16:50:22.949Z,28.20
2023-02-18T16:52:53.966Z,24.05
2023-02-18T16:55:23.301Z,24.75
2023-02-18T16:57:51.174Z,22.25
2023-02-18T17:00:20.067Z,32.25
2023-02-18T17:02:51.076Z,32.47
2023-02-18T17:05:27.548Z,28.67
2023-02-18T17:07:58.692Z,23.83
2023-02-18T17:10:26.407Z,20.33
2023-02-18T17:12:54.063Z,23.52
2023-02-18T17:15:33.088Z,27.10
2023-02-18T17:18:01.751Z,26.50
2023-02-18T17:20:32.056Z,25.25
2023-02-18T17:23:01.204Z,27.90
2023-02-18T17:25:33.260Z,32.70
2023-02-18T17:28:02.934Z,34.03
2023-02-18T17:30:31.914Z,37.70
2023-02-18T17:33:03.074Z,29.75
2023-02-18T17:35:31.481Z,31.42
2023-02-18T17:37:59.237Z,34.47
2023-02-18T17:40:29.598Z,28.85
2023-02-18T17:42:57.678Z,29.70
2023-02-18T17:45:29.870Z,30.58
2023-02-18T17:47:57.974Z,28.02
2023-02-18T17:50:26.375Z,26.75
2023-02-18T17:52:54.052Z,32.10
2023-02-18T17:55:24.088Z,25.02
2023-02-18T17:57:54.069Z,33.45
2023-02-18T18:00:24.003Z,26.17
2023-02-18T18:02:51.971Z,26.95
2023-02-18T18:05:23.079Z,27.13
2023-02-18T18:07:51.769Z,21.48
2023-02-18T18:10:21.947Z,18.73
2023-02-18T18:12:50.759Z,21.55
2023-02-18T18:15:27.973Z,22.70
2023-02-18T18:17:56.987Z,25.48
2023-02-18T18:20:25.388Z,26.25
2023-02-18T18:22:55.234Z,26.15
2023-02-18T18:25:26.572Z,30.45
2023-02-18T18:27:54.496Z,26.95
2023-02-18T18:30:25.887Z,27.80
2023-02-18T18:32:53.779Z,29.35
2023-02-18T18:35:24.459Z,32.42
2023-02-18T18:37:52.859Z,37.92
2023-02-18T18:40:22.642Z,27.55
2023-02-18T18:42:50.838Z,22.85
2023-02-18T18:45:22.262Z,21.25
2023-02-18T18:47:55.203Z,17.95
2023-02-18T18:50:24.182Z,21.20
2023-02-18T18:52:53.572Z,17.00
2023-02-18T18:55:25.001Z,21.50
2023-02-18T18:57:53.214Z,20.77
2023-02-18T19:00:23.295Z,22.23
2023-02-18T19:02:52.498Z,23.17
2023-02-18T19:05:23.756Z,20.52
2023-02-18T19:07:51.664Z,21.50
2023-02-18T19:10:20.766Z,18.20
2023-02-18T19:12:49.870Z,18.55
2023-02-18T19:15:20.159Z,21.90
2023-02-18T19:17:54.725Z,22.73
2023-02-18T19:20:28.277Z,21.58
2023-02-18T19:22:58.290Z,24.15
2023-02-18T19:25:26.935Z,21.05
2023-02-18T19:27:54.914Z,16.90
2023-02-18T19:30:24.692Z,24.60
2023-02-18T19:32:56.810Z,24.98
2023-02-18T19:35:25.946Z,26.45
2023-02-18T19:37:54.198Z,28.23
2023-02-18T19:40:24.172Z,24.92
2023-02-18T19:42:52.592Z,25.80
2023-02-18T19:45:20.770Z,22.00
2023-02-18T19:47:53.344Z,23.75
2023-02-18T19:50:22.595Z,24.15
2023-02-18T19:52:53.119Z,23.27
2023-02-18T19:55:21.697Z,26.10
2023-02-18T19:57:49.500Z,27.80
2023-02-18T20:00:19.124Z,26.35
2023-02-18T20:02:47.848Z,22.08
2023-02-18T20:05:16.160Z,23.85
2023-02-18T20:07:46.912Z,22.55
2023-02-18T20:10:16.775Z,24.33
2023-02-18T20:12:45.075Z,20.40
2023-02-18T20:15:12.964Z,25.55
2023-02-18T20:17:44.978Z,21.00
2023-02-18T20:20:12.832Z,21.20
2023-02-18T20:22:40.704Z,19.27
2023-02-18T20:25:10.337Z,21.90
2023-02-18T20:27:45.152Z,23.80
2023-02-18T20:30:19.030Z,30.35
2023-02-18T20:32:46.893Z,23.30
2023-02-18T20:35:14.714Z,20.35
2023-02-18T20:37:42.485Z,20.63
2023-02-18T20:40:12.097Z,25.17
2023-02-18T20:42:41.909Z,23.92
2023-02-18T20:45:10.680Z,23.02
2023-02-18T20:47:38.411Z,25.27
2023-02-18T20:50:06.624Z,22.45
2023-02-18T20:52:36.532Z,22.70
2023-02-18T20:55:04.398Z,24.00
2023-02-18T20:57:33.610Z,25.48
2023-02-18T21:00:05.987Z,23.30
2023-02-18T21:02:33.880Z,25.77
2023-02-18T21:05:01.660Z,24.23
2023-02-18T21:07:29.463Z,25.20
2023-02-18T21:09:57.233Z,25.02
2023-02-18T21:12:25.119Z,23.63
2023-02-18T21:14:54.338Z,24.65
2023-02-18T21:17:22.936Z,26.42
2023-02-18T21:19:50.709Z,28.45
2023-02-18T21:22:18.422Z,27.75
2023-02-18T21:24:46.333Z,27.75
2023-02-18T21:27:14.144Z,29.83
2023-02-18T21:29:41.986Z,25.77
2023-02-18T21:32:11.176Z,32.08
2023-02-18T21:34:39.013Z,33.20
2023-02-18T21:37:06.693Z,28.35
2023-02-18T21:39:34.468Z,23.48
2023-02-18T21:42:04.254Z,28.58
2023-02-18T21:44:41.698Z,26.95
2023-02-18T21:47:12.334Z,26.95
2023-02-18T21:49:40.104Z,25.27
2023-02-18T21:52:09.468Z,26.17
2023-02-18T21:54:40.245Z,23.05
2023-02-18T21:57:10.824Z,32.38
2023-02-18T21:59:38.856Z,26.17
2023-02-18T22:02:09.978Z,30.05
2023-02-18T22:04:39.189Z,27.85
2023-02-18T22:07:06.917Z,26.92
2023-02-18T22:09:34.783Z,30.58
2023-02-18T22:12:02.610Z,30.42
2023-02-18T22:14:30.673Z,31.17
2023-02-18T22:16:58.600Z,30.15
2023-02-18T22:19:26.738Z,28.60
2023-02-18T22:21:56.217Z,29.15
2023-02-18T22:24:23.939Z,25.83
2023-02-18T22:26:51.852Z,24.42
2023-02-18T22:29:21.502Z,26.77
2023-02-18T22:31:50.155Z,30.30
2023-02-18T22:34:18.102Z,27.42
2023-02-18T22:36:46.081Z,30.42
2023-02-18T22:39:16.292Z,29.65
2023-02-18T22:41:44.145Z,29.33
2023-02-18T22:44:13.855Z,30.63
2023-02-18T22:46:41.748Z,27.58
2023-02-18T22:49:09.627Z,23.23
2023-02-18T22:51:39.877Z,25.35
2023-02-18T22:54:11.009Z,23.38
2023-02-18T22:56:40.575Z,20.45
2023-02-18T22:59:08.296Z,25.05
2023-02-18T23:01:38.187Z,23.83
2023-02-18T23:04:08.821Z,25.02
2023-02-18T23:06:37.627Z,26.45
2023-02-18T23:09:06.494Z,21.90
2023-02-18T23:11:34.649Z,22.75
2023-02-18T23:14:18.937Z,24.83
2023-02-18T23:17:04.524Z,23.23
2023-02-18T23:19:33.453Z,21.52
2023-02-18T23:22:01.135Z,23.67
2023-02-18T23:24:29.017Z,25.75
2023-02-18T23:26:56.765Z,24.45
2023-02-18T23:29:25.848Z,22.08
2023-02-18T23:31:53.689Z,22.88
2023-02-18T23:34:21.457Z,25.58
2023-02-18T23:36:49.233Z,23.60
2023-02-18T23:39:18.903Z,24.25
2023-02-18T23:41:48.117Z,24.35
2023-02-18T23:44:17.359Z,24.63
2023-02-18T23:46:46.609Z,24.58
2023-02-18T23:49:15.963Z,25.02
2023-02-18T23:51:44.192Z,23.40
2023-02-18T23:54:13.913Z,27.25
2023-02-18T23:56:41.768Z,27.20
2023-02-18T23:59:12.200Z,27.08
